TimeCDT,TemperatureF,Dew PointF,Humidity,Sea Level PressureIn,VisibilityMPH,Wind Direction,Wind SpeedMPH,Gust SpeedMPH,PrecipitationIn,Events,Conditions,WindDirDegrees,DateUTC
12:49 AM,57.2,55.4,94,29.53,10.0,NW,6.9,-,N/A,,Mostly Cloudy,320,2013-05-20 05:49:00
12:52 AM,57.9,55.9,93,29.52,10.0,NNW,8.1,-,N/A,,Mostly Cloudy,330,2013-05-20 05:52:00
1:52 AM,59.0,55.9,90,29.52,10.0,Calm,Calm,-,N/A,,Overcast,0,2013-05-20 06:52:00
2:52 AM,57.0,55.0,93,29.52,10.0,East,4.6,-,N/A,,Partly Cloudy,100,2013-05-20 07:52:00
3:52 AM,55.9,55.0,97,29.52,7.0,SE,4.6,-,N/A,,Mostly Cloudy,140,2013-05-20 08:52:00
4:52 AM,57.0,55.0,93,29.51,9.0,South,3.5,-,N/A,,Overcast,180,2013-05-20 09:52:00
5:52 AM,57.0,55.9,96,29.51,8.0,SW,3.5,-,0.01,Rain,Light Rain,220,2013-05-20 10:52:00
6:52 AM,57.9,55.9,93,29.52,9.0,WSW,4.6,-,0.00,,Overcast,250,2013-05-20 11:52:00
7:52 AM,57.9,55.9,93,29.55,7.0,West,9.2,-,0.01,Rain,Light Rain,260,2013-05-20 12:52:00
8:45 AM,59.0,55.4,88,29.57,10.0,WSW,10.4,-,0.00,,Overcast,240,2013-05-20 13:45:00
8:52 AM,60.1,55.0,83,29.57,10.0,WSW,10.4,-,0.00,,Overcast,240,2013-05-20 13:52:00
9:35 AM,62.6,55.4,77,29.59,10.0,WSW,17.3,20.7,N/A,,Mostly Cloudy,240,2013-05-20 14:35:00
9:52 AM,63.0,55.9,78,29.57,10.0,WSW,12.7,-,N/A,,Mostly Cloudy,240,2013-05-20 14:52:00
10:52 AM,64.0,54.0,70,29.58,10.0,WSW,13.8,21.9,N/A,,Mostly Cloudy,240,2013-05-20 15:52:00
11:52 AM,66.9,55.0,66,29.59,10.0,SW,18.4,25.3,N/A,,Mostly Cloudy,230,2013-05-20 16:52:00
12:52 PM,69.1,55.0,61,29.59,10.0,SSW,21.9,26.5,N/A,,Mostly Cloudy,210,2013-05-20 17:52:00
1:52 PM,70.0,55.0,59,29.58,10.0,SW,17.3,-,N/A,,Mostly Cloudy,220,2013-05-20 18:52:00
2:52 PM,71.1,55.0,57,29.57,10.0,SW,15.0,24.2,N/A,,Overcast,220,2013-05-20 19:52:00
3:52 PM,69.1,57.0,65,29.55,10.0,South,15.0,-,N/A,,Mostly Cloudy,190,2013-05-20 20:52:00
4:52 PM,72.0,55.0,55,29.53,10.0,SW,17.3,-,N/A,,Overcast,230,2013-05-20 21:52:00
5:52 PM,72.0,52.0,49,29.52,10.0,SW,16.1,26.5,N/A,,Overcast,230,2013-05-20 22:52:00
6:52 PM,71.1,51.1,49,29.51,10.0,SW,15.0,-,N/A,,Overcast,220,2013-05-20 23:52:00
7:52 PM,69.1,50.0,51,29.51,10.0,SW,11.5,21.9,N/A,,Overcast,230,2013-05-21 00:52:00
8:52 PM,64.9,52.0,63,29.52,10.0,SW,6.9,-,N/A,,Overcast,220,2013-05-21 01:52:00
9:52 PM,64.0,53.1,67,29.53,10.0,West,12.7,-,N/A,,Overcast,280,2013-05-21 02:52:00
10:52 PM,62.1,55.0,78,29.54,10.0,WNW,11.5,-,N/A,,Overcast,290,2013-05-21 03:52:00
11:03 PM,60.8,55.4,82,29.55,10.0,WNW,11.5,-,N/A,,Overcast,300,2013-05-21 04:03:00
11:41 PM,59.0,55.4,88,29.57,10.0,WNW,10.4,-,N/A,,Overcast,290,2013-05-21 04:41:00
11:52 PM,59.0,55.0,87,29.56,10.0,West,10.4,-,N/A,,Overcast,280,2013-05-21 04:52:00